sensor_id;sensor_type;location;lat;lon;timestamp;P1;durP1;ratioP1;P2;durP2;ratioP2
4500;SDS011;2263;54.654;9.410;2022-11-27T00:02:15;96.90;;;33.63;;
4500;SDS011;2263;54.654;9.410;2022-11-27T00:04:42;90.33;;;32.20;;
4500;SDS011;2263;54.654;9.410;2022-11-27T00:07:09;100.33;;;39.20;;
4500;SDS011;2263;54.654;9.410;2022-11-27T00:09:36;95.87;;;32.93;;
4500;SDS011;2263;54.654;9.410;2022-11-27T00:12:04;92.77;;;33.00;;
4500;SDS011;2263;54.654;9.410;2022-11-27T00:14:31;98.90;;;34.90;;
4500;SDS011;2263;54.654;9.410;2022-11-27T00:16:59;119.10;;;38.33;;
4500;SDS011;2263;54.654;9.410;2022-11-27T00:19:26;94.57;;;36.97;;
4500;SDS011;2263;54.654;9.410;2022-11-27T00:21:54;101.67;;;36.37;;
4500;SDS011;2263;54.654;9.410;2022-11-27T00:24:21;92.70;;;35.40;;
4500;SDS011;2263;54.654;9.410;2022-11-27T00:26:49;103.67;;;36.83;;
4500;SDS011;2263;54.654;9.410;2022-11-27T00:29:16;112.50;;;39.23;;
4500;SDS011;2263;54.654;9.410;2022-11-27T00:31:43;107.23;;;36.60;;
4500;SDS011;2263;54.654;9.410;2022-11-27T00:34:11;110.43;;;36.67;;
4500;SDS011;2263;54.654;9.410;2022-11-27T00:36:38;122.60;;;37.67;;
4500;SDS011;2263;54.654;9.410;2022-11-27T00:39:12;127.63;;;41.93;;
4500;SDS011;2263;54.654;9.410;2022-11-27T00:41:39;116.83;;;37.30;;
4500;SDS011;2263;54.654;9.410;2022-11-27T00:44:06;126.87;;;43.00;;
4500;SDS011;2263;54.654;9.410;2022-11-27T00:46:33;110.77;;;37.63;;
4500;SDS011;2263;54.654;9.410;2022-11-27T00:49:02;109.33;;;39.20;;
4500;SDS011;2263;54.654;9.410;2022-11-27T00:51:31;120.00;;;41.77;;
4500;SDS011;2263;54.654;9.410;2022-11-27T00:53:58;110.40;;;38.70;;
4500;SDS011;2263;54.654;9.410;2022-11-27T00:56:27;114.73;;;38.13;;
4500;SDS011;2263;54.654;9.410;2022-11-27T00:58:56;105.70;;;42.10;;
4500;SDS011;2263;54.654;9.410;2022-11-27T01:01:36;112.13;;;39.40;;
4500;SDS011;2263;54.654;9.410;2022-11-27T01:04:09;114.87;;;41.13;;
4500;SDS011;2263;54.654;9.410;2022-11-27T01:06:39;104.33;;;40.00;;
4500;SDS011;2263;54.654;9.410;2022-11-27T01:09:08;121.23;;;40.50;;
4500;SDS011;2263;54.654;9.410;2022-11-27T01:11:37;100.47;;;38.80;;
4500;SDS011;2263;54.654;9.410;2022-11-27T01:14:06;110.23;;;40.73;;
4500;SDS011;2263;54.654;9.410;2022-11-27T01:16:36;114.13;;;42.57;;
4500;SDS011;2263;54.654;9.410;2022-11-27T01:19:09;105.23;;;39.70;;
4500;SDS011;2263;54.654;9.410;2022-11-27T01:21:37;106.37;;;40.37;;
4500;SDS011;2263;54.654;9.410;2022-11-27T01:24:05;121.47;;;44.53;;
4500;SDS011;2263;54.654;9.410;2022-11-27T01:26:32;96.13;;;37.60;;
4500;SDS011;2263;54.654;9.410;2022-11-27T01:28:59;104.90;;;38.37;;
4500;SDS011;2263;54.654;9.410;2022-11-27T01:31:28;103.33;;;37.40;;
4500;SDS011;2263;54.654;9.410;2022-11-27T01:33:58;100.73;;;36.80;;
4500;SDS011;2263;54.654;9.410;2022-11-27T01:36:27;101.30;;;35.93;;
4500;SDS011;2263;54.654;9.410;2022-11-27T01:38:55;109.40;;;40.40;;
4500;SDS011;2263;54.654;9.410;2022-11-27T01:41:24;98.20;;;36.07;;
4500;SDS011;2263;54.654;9.410;2022-11-27T01:44:00;106.93;;;38.33;;
4500;SDS011;2263;54.654;9.410;2022-11-27T01:46:37;99.37;;;38.80;;
4500;SDS011;2263;54.654;9.410;2022-11-27T01:57:10;92.27;;;36.33;;
4500;SDS011;2263;54.654;9.410;2022-11-27T01:59:41;102.10;;;35.30;;
4500;SDS011;2263;54.654;9.410;2022-11-27T02:02:10;92.13;;;38.30;;
4500;SDS011;2263;54.654;9.410;2022-11-27T02:04:38;89.37;;;35.60;;
4500;SDS011;2263;54.654;9.410;2022-11-27T02:07:05;80.83;;;34.13;;
4500;SDS011;2263;54.654;9.410;2022-11-27T02:09:32;95.67;;;37.47;;
4500;SDS011;2263;54.654;9.410;2022-11-27T02:20:44;87.63;;;33.30;;
4500;SDS011;2263;54.654;9.410;2022-11-27T02:30:41;79.90;;;31.50;;
4500;SDS011;2263;54.654;9.410;2022-11-27T02:33:13;78.87;;;33.77;;
4500;SDS011;2263;54.654;9.410;2022-11-27T02:36:28;84.53;;;32.13;;
4500;SDS011;2263;54.654;9.410;2022-11-27T02:38:50;73.67;;;30.43;;
4500;SDS011;2263;54.654;9.410;2022-11-27T02:41:25;76.90;;;30.87;;
4500;SDS011;2263;54.654;9.410;2022-11-27T02:44:02;75.17;;;30.97;;
4500;SDS011;2263;54.654;9.410;2022-11-27T02:46:32;78.40;;;32.43;;
4500;SDS011;2263;54.654;9.410;2022-11-27T02:49:03;75.43;;;29.43;;
4500;SDS011;2263;54.654;9.410;2022-11-27T02:51:35;72.37;;;32.00;;
4500;SDS011;2263;54.654;9.410;2022-11-27T02:54:09;64.37;;;30.90;;
4500;SDS011;2263;54.654;9.410;2022-11-27T02:56:40;73.77;;;29.70;;
4500;SDS011;2263;54.654;9.410;2022-11-27T02:59:10;65.37;;;30.20;;
4500;SDS011;2263;54.654;9.410;2022-11-27T03:01:42;80.60;;;31.90;;
4500;SDS011;2263;54.654;9.410;2022-11-27T03:04:18;70.97;;;30.67;;
4500;SDS011;2263;54.654;9.410;2022-11-27T03:06:52;68.10;;;32.57;;
4500;SDS011;2263;54.654;9.410;2022-11-27T03:11:55;76.87;;;29.80;;
4500;SDS011;2263;54.654;9.410;2022-11-27T03:14:22;70.03;;;31.53;;
4500;SDS011;2263;54.654;9.410;2022-11-27T03:19:25;65.07;;;30.40;;
4500;SDS011;2263;54.654;9.410;2022-11-27T03:21:59;68.60;;;29.63;;
4500;SDS011;2263;54.654;9.410;2022-11-27T03:24:28;64.33;;;31.13;;
4500;SDS011;2263;54.654;9.410;2022-11-27T03:26:58;82.67;;;31.17;;
4500;SDS011;2263;54.654;9.410;2022-11-27T03:32:14;68.97;;;29.37;;
4500;SDS011;2263;54.654;9.410;2022-11-27T03:34:42;64.97;;;30.20;;
4500;SDS011;2263;54.654;9.410;2022-11-27T03:37:09;55.53;;;27.17;;
4500;SDS011;2263;54.654;9.410;2022-11-27T03:39:37;66.80;;;29.40;;
4500;SDS011;2263;54.654;9.410;2022-11-27T03:58:46;69.77;;;27.63;;
4500;SDS011;2263;54.654;9.410;2022-11-27T04:01:24;66.73;;;29.00;;
4500;SDS011;2263;54.654;9.410;2022-11-27T04:03:53;68.93;;;29.27;;
4500;SDS011;2263;54.654;9.410;2022-11-27T04:06:20;53.00;;;26.27;;
4500;SDS011;2263;54.654;9.410;2022-11-27T04:08:47;61.53;;;29.23;;
4500;SDS011;2263;54.654;9.410;2022-11-27T04:11:15;73.03;;;31.13;;
4500;SDS011;2263;54.654;9.410;2022-11-27T04:13:42;57.17;;;27.87;;
4500;SDS011;2263;54.654;9.410;2022-11-27T04:16:09;64.60;;;31.13;;
4500;SDS011;2263;54.654;9.410;2022-11-27T04:18:37;62.00;;;26.20;;
4500;SDS011;2263;54.654;9.410;2022-11-27T04:21:04;63.43;;;28.73;;
4500;SDS011;2263;54.654;9.410;2022-11-27T04:23:31;51.50;;;24.67;;
4500;SDS011;2263;54.654;9.410;2022-11-27T04:25:58;54.63;;;27.30;;
4500;SDS011;2263;54.654;9.410;2022-11-27T04:28:26;49.97;;;24.97;;
4500;SDS011;2263;54.654;9.410;2022-11-27T04:30:53;57.00;;;27.33;;
4500;SDS011;2263;54.654;9.410;2022-11-27T04:33:20;59.73;;;27.83;;
4500;SDS011;2263;54.654;9.410;2022-11-27T04:35:48;54.77;;;26.47;;
4500;SDS011;2263;54.654;9.410;2022-11-27T04:38:16;51.77;;;26.77;;
4500;SDS011;2263;54.654;9.410;2022-11-27T04:40:44;58.20;;;28.50;;
4500;SDS011;2263;54.654;9.410;2022-11-27T04:43:11;55.37;;;26.13;;
4500;SDS011;2263;54.654;9.410;2022-11-27T04:45:39;47.77;;;23.40;;
4500;SDS011;2263;54.654;9.410;2022-11-27T04:48:06;54.50;;;24.53;;
4500;SDS011;2263;54.654;9.410;2022-11-27T04:50:33;49.77;;;24.70;;
4500;SDS011;2263;54.654;9.410;2022-11-27T04:53:01;44.03;;;23.87;;
4500;SDS011;2263;54.654;9.410;2022-11-27T04:55:28;53.77;;;25.43;;
4500;SDS011;2263;54.654;9.410;2022-11-27T04:57:55;58.60;;;28.67;;
4500;SDS011;2263;54.654;9.410;2022-11-27T05:00:22;58.50;;;24.77;;
4500;SDS011;2263;54.654;9.410;2022-11-27T05:02:49;54.40;;;24.20;;
4500;SDS011;2263;54.654;9.410;2022-11-27T05:05:17;42.27;;;22.13;;
4500;SDS011;2263;54.654;9.410;2022-11-27T05:07:44;50.13;;;21.73;;
4500;SDS011;2263;54.654;9.410;2022-11-27T05:10:11;47.50;;;22.27;;
4500;SDS011;2263;54.654;9.410;2022-11-27T05:12:38;49.07;;;22.43;;
4500;SDS011;2263;54.654;9.410;2022-11-27T05:15:06;41.90;;;22.13;;
4500;SDS011;2263;54.654;9.410;2022-11-27T05:17:33;50.23;;;21.33;;
4500;SDS011;2263;54.654;9.410;2022-11-27T05:20:01;39.30;;;20.60;;
4500;SDS011;2263;54.654;9.410;2022-11-27T05:22:28;52.60;;;22.87;;
4500;SDS011;2263;54.654;9.410;2022-11-27T05:24:55;44.07;;;22.83;;
4500;SDS011;2263;54.654;9.410;2022-11-27T05:27:22;47.60;;;22.83;;
4500;SDS011;2263;54.654;9.410;2022-11-27T05:29:49;39.73;;;20.33;;
4500;SDS011;2263;54.654;9.410;2022-11-27T05:32:16;39.67;;;21.20;;
4500;SDS011;2263;54.654;9.410;2022-11-27T05:34:43;43.27;;;20.47;;
4500;SDS011;2263;54.654;9.410;2022-11-27T05:37:10;40.87;;;20.10;;
4500;SDS011;2263;54.654;9.410;2022-11-27T05:39:44;42.90;;;19.87;;
4500;SDS011;2263;54.654;9.410;2022-11-27T05:42:12;36.83;;;20.43;;
4500;SDS011;2263;54.654;9.410;2022-11-27T05:44:39;44.27;;;19.57;;
4500;SDS011;2263;54.654;9.410;2022-11-27T05:47:06;45.07;;;20.00;;
4500;SDS011;2263;54.654;9.410;2022-11-27T05:49:33;40.63;;;19.47;;
4500;SDS011;2263;54.654;9.410;2022-11-27T05:52:01;34.90;;;20.73;;
4500;SDS011;2263;54.654;9.410;2022-11-27T05:54:28;43.23;;;19.30;;
4500;SDS011;2263;54.654;9.410;2022-11-27T05:56:55;43.57;;;20.47;;
4500;SDS011;2263;54.654;9.410;2022-11-27T05:59:22;31.50;;;18.63;;
4500;SDS011;2263;54.654;9.410;2022-11-27T06:01:49;34.97;;;18.57;;
4500;SDS011;2263;54.654;9.410;2022-11-27T06:04:16;34.33;;;17.43;;
4500;SDS011;2263;54.654;9.410;2022-11-27T06:06:44;32.90;;;18.83;;
4500;SDS011;2263;54.654;9.410;2022-11-27T06:09:11;28.70;;;16.73;;
4500;SDS011;2263;54.654;9.410;2022-11-27T06:11:39;32.27;;;16.97;;
4500;SDS011;2263;54.654;9.410;2022-11-27T06:14:07;24.27;;;15.47;;
4500;SDS011;2263;54.654;9.410;2022-11-27T06:16:35;33.40;;;16.77;;
4500;SDS011;2263;54.654;9.410;2022-11-27T06:19:03;28.80;;;15.80;;
4500;SDS011;2263;54.654;9.410;2022-11-27T06:21:30;29.97;;;16.27;;
4500;SDS011;2263;54.654;9.410;2022-11-27T06:23:57;34.13;;;16.83;;
4500;SDS011;2263;54.654;9.410;2022-11-27T06:26:25;30.10;;;15.77;;
4500;SDS011;2263;54.654;9.410;2022-11-27T06:28:54;37.13;;;17.10;;
4500;SDS011;2263;54.654;9.410;2022-11-27T06:31:24;30.10;;;15.60;;
4500;SDS011;2263;54.654;9.410;2022-11-27T06:33:54;37.40;;;15.60;;
4500;SDS011;2263;54.654;9.410;2022-11-27T06:36:22;34.47;;;15.73;;
4500;SDS011;2263;54.654;9.410;2022-11-27T06:38:51;21.77;;;14.63;;
4500;SDS011;2263;54.654;9.410;2022-11-27T06:41:18;21.83;;;14.13;;
4500;SDS011;2263;54.654;9.410;2022-11-27T06:43:47;24.20;;;15.67;;
4500;SDS011;2263;54.654;9.410;2022-11-27T06:46:15;27.17;;;13.20;;
4500;SDS011;2263;54.654;9.410;2022-11-27T06:48:44;27.07;;;13.73;;
4500;SDS011;2263;54.654;9.410;2022-11-27T06:51:16;32.03;;;14.47;;
4500;SDS011;2263;54.654;9.410;2022-11-27T06:53:49;25.70;;;13.87;;
4500;SDS011;2263;54.654;9.410;2022-11-27T06:56:17;34.63;;;13.30;;
4500;SDS011;2263;54.654;9.410;2022-11-27T06:58:49;34.20;;;13.97;;
4500;SDS011;2263;54.654;9.410;2022-11-27T07:01:20;20.97;;;13.73;;
4500;SDS011;2263;54.654;9.410;2022-11-27T07:03:48;22.30;;;12.33;;
4500;SDS011;2263;54.654;9.410;2022-11-27T07:06:19;22.80;;;13.00;;
4500;SDS011;2263;54.654;9.410;2022-11-27T07:08:48;25.63;;;13.13;;
4500;SDS011;2263;54.654;9.410;2022-11-27T07:11:16;24.07;;;12.10;;
4500;SDS011;2263;54.654;9.410;2022-11-27T07:13:46;23.77;;;11.33;;
4500;SDS011;2263;54.654;9.410;2022-11-27T07:16:14;22.17;;;13.10;;
4500;SDS011;2263;54.654;9.410;2022-11-27T07:18:43;17.63;;;10.60;;
4500;SDS011;2263;54.654;9.410;2022-11-27T07:21:13;19.83;;;12.43;;
4500;SDS011;2263;54.654;9.410;2022-11-27T07:23:41;17.50;;;12.50;;
4500;SDS011;2263;54.654;9.410;2022-11-27T07:26:10;16.63;;;11.13;;
4500;SDS011;2263;54.654;9.410;2022-11-27T07:28:39;23.13;;;11.20;;
4500;SDS011;2263;54.654;9.410;2022-11-27T07:31:10;17.00;;;10.37;;
4500;SDS011;2263;54.654;9.410;2022-11-27T07:33:40;18.73;;;11.90;;
4500;SDS011;2263;54.654;9.410;2022-11-27T07:36:18;16.03;;;9.97;;
4500;SDS011;2263;54.654;9.410;2022-11-27T07:38:46;17.50;;;10.77;;
4500;SDS011;2263;54.654;9.410;2022-11-27T07:41:14;23.40;;;12.10;;
4500;SDS011;2263;54.654;9.410;2022-11-27T07:43:42;20.33;;;11.33;;
4500;SDS011;2263;54.654;9.410;2022-11-27T07:46:20;20.30;;;11.20;;
4500;SDS011;2263;54.654;9.410;2022-11-27T07:48:49;18.87;;;11.20;;
4500;SDS011;2263;54.654;9.410;2022-11-27T07:51:17;16.77;;;10.10;;
4500;SDS011;2263;54.654;9.410;2022-11-27T07:53:46;19.53;;;12.00;;
4500;SDS011;2263;54.654;9.410;2022-11-27T07:56:14;23.87;;;11.53;;
4500;SDS011;2263;54.654;9.410;2022-11-27T07:58:42;20.67;;;10.97;;
4500;SDS011;2263;54.654;9.410;2022-11-27T08:01:10;30.47;;;12.37;;
4500;SDS011;2263;54.654;9.410;2022-11-27T08:03:39;15.23;;;11.00;;
4500;SDS011;2263;54.654;9.410;2022-11-27T08:06:17;12.00;;;9.67;;
4500;SDS011;2263;54.654;9.410;2022-11-27T08:08:51;22.07;;;11.50;;
4500;SDS011;2263;54.654;9.410;2022-11-27T08:11:25;24.13;;;11.90;;
4500;SDS011;2263;54.654;9.410;2022-11-27T08:13:59;26.23;;;12.23;;
4500;SDS011;2263;54.654;9.410;2022-11-27T08:16:31;16.30;;;10.57;;
4500;SDS011;2263;54.654;9.410;2022-11-27T08:19:00;19.23;;;10.33;;
4500;SDS011;2263;54.654;9.410;2022-11-27T08:21:27;18.13;;;10.30;;
4500;SDS011;2263;54.654;9.410;2022-11-27T08:23:55;16.53;;;10.07;;
4500;SDS011;2263;54.654;9.410;2022-11-27T08:26:23;18.53;;;11.80;;
4500;SDS011;2263;54.654;9.410;2022-11-27T08:28:53;16.23;;;10.40;;
4500;SDS011;2263;54.654;9.410;2022-11-27T08:31:21;17.13;;;9.90;;
4500;SDS011;2263;54.654;9.410;2022-11-27T08:33:49;23.20;;;11.10;;
4500;SDS011;2263;54.654;9.410;2022-11-27T08:36:16;21.93;;;10.60;;
4500;SDS011;2263;54.654;9.410;2022-11-27T08:38:44;29.63;;;12.33;;
4500;SDS011;2263;54.654;9.410;2022-11-27T08:41:11;19.83;;;11.27;;
4500;SDS011;2263;54.654;9.410;2022-11-27T08:43:39;18.80;;;11.73;;
4500;SDS011;2263;54.654;9.410;2022-11-27T08:46:06;25.90;;;11.03;;
4500;SDS011;2263;54.654;9.410;2022-11-27T08:48:34;19.80;;;11.00;;
4500;SDS011;2263;54.654;9.410;2022-11-27T08:51:06;16.80;;;10.47;;
4500;SDS011;2263;54.654;9.410;2022-11-27T08:53:34;18.97;;;11.10;;
4500;SDS011;2263;54.654;9.410;2022-11-27T08:56:04;20.80;;;11.43;;
4500;SDS011;2263;54.654;9.410;2022-11-27T08:58:36;20.77;;;12.60;;
4500;SDS011;2263;54.654;9.410;2022-11-27T09:01:17;15.87;;;10.77;;
4500;SDS011;2263;54.654;9.410;2022-11-27T09:03:46;20.13;;;11.53;;
4500;SDS011;2263;54.654;9.410;2022-11-27T09:06:17;18.97;;;10.47;;
4500;SDS011;2263;54.654;9.410;2022-11-27T09:08:56;17.63;;;11.90;;
4500;SDS011;2263;54.654;9.410;2022-11-27T09:11:23;17.83;;;10.63;;
4500;SDS011;2263;54.654;9.410;2022-11-27T09:13:52;21.77;;;10.97;;
4500;SDS011;2263;54.654;9.410;2022-11-27T09:16:20;25.93;;;12.00;;
4500;SDS011;2263;54.654;9.410;2022-11-27T09:18:48;22.27;;;11.47;;
4500;SDS011;2263;54.654;9.410;2022-11-27T09:21:17;19.33;;;11.50;;
4500;SDS011;2263;54.654;9.410;2022-11-27T09:23:46;17.73;;;11.37;;
4500;SDS011;2263;54.654;9.410;2022-11-27T09:26:14;30.90;;;14.00;;
4500;SDS011;2263;54.654;9.410;2022-11-27T09:28:42;21.33;;;11.37;;
4500;SDS011;2263;54.654;9.410;2022-11-27T09:31:11;18.13;;;10.00;;
4500;SDS011;2263;54.654;9.410;2022-11-27T09:33:40;21.53;;;12.27;;
4500;SDS011;2263;54.654;9.410;2022-11-27T09:38:40;20.77;;;12.20;;
4500;SDS011;2263;54.654;9.410;2022-11-27T09:44:02;15.80;;;11.70;;
4500;SDS011;2263;54.654;9.410;2022-11-27T09:46:50;19.77;;;12.83;;
4500;SDS011;2263;54.654;9.410;2022-11-27T09:49:24;24.90;;;13.03;;
4500;SDS011;2263;54.654;9.410;2022-11-27T09:52:06;22.80;;;12.53;;
4500;SDS011;2263;54.654;9.410;2022-11-27T09:54:42;28.17;;;12.20;;
4500;SDS011;2263;54.654;9.410;2022-11-27T09:57:23;22.53;;;13.73;;
4500;SDS011;2263;54.654;9.410;2022-11-27T09:59:57;21.33;;;11.20;;
4500;SDS011;2263;54.654;9.410;2022-11-27T10:02:30;24.60;;;12.43;;
4500;SDS011;2263;54.654;9.410;2022-11-27T10:04:59;20.30;;;12.13;;
4500;SDS011;2263;54.654;9.410;2022-11-27T10:10:38;21.63;;;13.70;;
4500;SDS011;2263;54.654;9.410;2022-11-27T10:13:31;23.60;;;12.87;;
4500;SDS011;2263;54.654;9.410;2022-11-27T10:16:25;21.53;;;14.10;;
4500;SDS011;2263;54.654;9.410;2022-11-27T10:27:36;20.97;;;13.63;;
4500;SDS011;2263;54.654;9.410;2022-11-27T10:30:18;23.27;;;12.43;;
4500;SDS011;2263;54.654;9.410;2022-11-27T10:32:47;24.87;;;12.93;;
4500;SDS011;2263;54.654;9.410;2022-11-27T10:35:28;24.10;;;13.50;;
4500;SDS011;2263;54.654;9.410;2022-11-27T10:43:29;24.33;;;12.93;;
4500;SDS011;2263;54.654;9.410;2022-11-27T10:46:41;31.63;;;16.40;;
4500;SDS011;2263;54.654;9.410;2022-11-27T10:48:47;23.43;;;14.17;;
4500;SDS011;2263;54.654;9.410;2022-11-27T10:51:16;19.40;;;13.30;;
4500;SDS011;2263;54.654;9.410;2022-11-27T10:53:46;24.07;;;12.90;;
4500;SDS011;2263;54.654;9.410;2022-11-27T10:59:18;22.37;;;13.70;;
4500;SDS011;2263;54.654;9.410;2022-11-27T11:01:56;24.17;;;13.53;;
4500;SDS011;2263;54.654;9.410;2022-11-27T11:04:26;21.43;;;14.00;;
4500;SDS011;2263;54.654;9.410;2022-11-27T11:07:15;20.63;;;13.93;;
4500;SDS011;2263;54.654;9.410;2022-11-27T11:09:54;31.23;;;16.37;;
4500;SDS011;2263;54.654;9.410;2022-11-27T11:12:22;25.93;;;14.60;;
4500;SDS011;2263;54.654;9.410;2022-11-27T11:14:54;19.50;;;13.53;;
4500;SDS011;2263;54.654;9.410;2022-11-27T11:17:25;23.57;;;14.20;;
4500;SDS011;2263;54.654;9.410;2022-11-27T11:20:22;23.70;;;13.73;;
4500;SDS011;2263;54.654;9.410;2022-11-27T11:22:50;22.67;;;14.53;;
4500;SDS011;2263;54.654;9.410;2022-11-27T11:25:18;27.77;;;15.50;;
4500;SDS011;2263;54.654;9.410;2022-11-27T11:27:47;26.80;;;14.47;;
4500;SDS011;2263;54.654;9.410;2022-11-27T11:30:23;21.53;;;13.90;;
4500;SDS011;2263;54.654;9.410;2022-11-27T11:33:01;23.30;;;14.90;;
4500;SDS011;2263;54.654;9.410;2022-11-27T11:35:32;24.83;;;14.67;;
4500;SDS011;2263;54.654;9.410;2022-11-27T11:38:05;27.63;;;15.03;;
4500;SDS011;2263;54.654;9.410;2022-11-27T11:40:42;33.40;;;17.77;;
4500;SDS011;2263;54.654;9.410;2022-11-27T11:43:25;31.60;;;15.50;;
4500;SDS011;2263;54.654;9.410;2022-11-27T11:46:03;33.53;;;16.00;;
4500;SDS011;2263;54.654;9.410;2022-11-27T11:48:33;24.77;;;15.50;;
4500;SDS011;2263;54.654;9.410;2022-11-27T11:53:41;28.60;;;15.80;;
4500;SDS011;2263;54.654;9.410;2022-11-27T12:10:32;27.10;;;15.97;;
4500;SDS011;2263;54.654;9.410;2022-11-27T12:13:16;33.13;;;16.10;;
4500;SDS011;2263;54.654;9.410;2022-11-27T12:15:53;21.27;;;15.10;;
4500;SDS011;2263;54.654;9.410;2022-11-27T12:24:34;20.70;;;14.00;;
4500;SDS011;2263;54.654;9.410;2022-11-27T12:30:16;27.60;;;16.07;;
4500;SDS011;2263;54.654;9.410;2022-11-27T12:33:04;25.97;;;15.87;;
4500;SDS011;2263;54.654;9.410;2022-11-27T12:39:08;23.93;;;13.90;;
4500;SDS011;2263;54.654;9.410;2022-11-27T12:47:28;22.67;;;15.70;;
4500;SDS011;2263;54.654;9.410;2022-11-27T12:50:17;25.00;;;14.87;;
4500;SDS011;2263;54.654;9.410;2022-11-27T12:53:02;25.53;;;15.27;;
4500;SDS011;2263;54.654;9.410;2022-11-27T12:56:02;27.63;;;16.13;;
4500;SDS011;2263;54.654;9.410;2022-11-27T12:58:31;31.60;;;16.67;;
4500;SDS011;2263;54.654;9.410;2022-11-27T13:01:05;25.70;;;13.70;;
4500;SDS011;2263;54.654;9.410;2022-11-27T13:06:30;25.43;;;14.87;;
4500;SDS011;2263;54.654;9.410;2022-11-27T13:09:05;22.77;;;13.23;;
4500;SDS011;2263;54.654;9.410;2022-11-27T13:11:39;25.93;;;14.23;;
4500;SDS011;2263;54.654;9.410;2022-11-27T13:16:40;24.40;;;14.13;;
4500;SDS011;2263;54.654;9.410;2022-11-27T13:22:05;28.73;;;14.63;;
4500;SDS011;2263;54.654;9.410;2022-11-27T13:24:37;24.23;;;14.70;;
4500;SDS011;2263;54.654;9.410;2022-11-27T13:27:06;24.60;;;14.20;;
4500;SDS011;2263;54.654;9.410;2022-11-27T13:29:53;18.13;;;13.10;;
4500;SDS011;2263;54.654;9.410;2022-11-27T13:32:32;26.67;;;14.60;;
4500;SDS011;2263;54.654;9.410;2022-11-27T13:35:29;27.33;;;15.67;;
4500;SDS011;2263;54.654;9.410;2022-11-27T13:38:12;23.20;;;13.63;;
4500;SDS011;2263;54.654;9.410;2022-11-27T13:40:48;26.03;;;14.37;;
4500;SDS011;2263;54.654;9.410;2022-11-27T13:43:19;24.00;;;13.87;;
4500;SDS011;2263;54.654;9.410;2022-11-27T13:46:01;29.13;;;15.30;;
4500;SDS011;2263;54.654;9.410;2022-11-27T13:48:35;25.33;;;15.47;;
4500;SDS011;2263;54.654;9.410;2022-11-27T13:51:07;22.83;;;13.33;;
4500;SDS011;2263;54.654;9.410;2022-11-27T13:53:37;29.07;;;14.03;;
4500;SDS011;2263;54.654;9.410;2022-11-27T13:56:07;35.90;;;15.03;;
4500;SDS011;2263;54.654;9.410;2022-11-27T13:58:36;26.50;;;13.50;;
4500;SDS011;2263;54.654;9.410;2022-11-27T14:01:18;23.60;;;15.20;;
4500;SDS011;2263;54.654;9.410;2022-11-27T14:03:49;24.80;;;13.10;;
4500;SDS011;2263;54.654;9.410;2022-11-27T14:06:18;25.30;;;14.00;;
4500;SDS011;2263;54.654;9.410;2022-11-27T14:14:17;20.50;;;13.67;;
4500;SDS011;2263;54.654;9.410;2022-11-27T14:17:00;30.80;;;14.17;;
4500;SDS011;2263;54.654;9.410;2022-11-27T14:19:35;25.77;;;13.10;;
4500;SDS011;2263;54.654;9.410;2022-11-27T14:30:47;21.97;;;14.03;;
4500;SDS011;2263;54.654;9.410;2022-11-27T14:33:21;23.50;;;11.80;;
4500;SDS011;2263;54.654;9.410;2022-11-27T14:35:53;21.97;;;13.17;;
4500;SDS011;2263;54.654;9.410;2022-11-27T14:38:25;26.03;;;13.80;;
4500;SDS011;2263;54.654;9.410;2022-11-27T14:41:05;28.10;;;13.40;;
4500;SDS011;2263;54.654;9.410;2022-11-27T14:43:34;24.80;;;14.13;;
4500;SDS011;2263;54.654;9.410;2022-11-27T14:46:02;20.43;;;13.10;;
4500;SDS011;2263;54.654;9.410;2022-11-27T14:48:39;22.50;;;13.80;;
4500;SDS011;2263;54.654;9.410;2022-11-27T14:51:15;19.43;;;12.00;;
4500;SDS011;2263;54.654;9.410;2022-11-27T14:53:47;21.13;;;13.17;;
4500;SDS011;2263;54.654;9.410;2022-11-27T14:56:17;20.83;;;12.43;;
4500;SDS011;2263;54.654;9.410;2022-11-27T14:58:51;20.03;;;11.90;;
4500;SDS011;2263;54.654;9.410;2022-11-27T15:01:24;21.50;;;12.87;;
4500;SDS011;2263;54.654;9.410;2022-11-27T15:04:02;22.97;;;11.87;;
4500;SDS011;2263;54.654;9.410;2022-11-27T15:06:33;19.53;;;12.27;;
4500;SDS011;2263;54.654;9.410;2022-11-27T15:09:04;21.37;;;11.90;;
4500;SDS011;2263;54.654;9.410;2022-11-27T15:11:55;18.27;;;12.17;;
4500;SDS011;2263;54.654;9.410;2022-11-27T15:14:24;24.93;;;12.60;;
4500;SDS011;2263;54.654;9.410;2022-11-27T15:16:53;20.30;;;13.40;;
4500;SDS011;2263;54.654;9.410;2022-11-27T15:19:26;19.23;;;13.23;;
4500;SDS011;2263;54.654;9.410;2022-11-27T15:21:59;23.67;;;11.80;;
4500;SDS011;2263;54.654;9.410;2022-11-27T15:24:29;20.30;;;12.23;;
4500;SDS011;2263;54.654;9.410;2022-11-27T15:32:17;16.43;;;11.13;;
4500;SDS011;2263;54.654;9.410;2022-11-27T15:34:49;16.83;;;11.43;;
4500;SDS011;2263;54.654;9.410;2022-11-27T15:39:54;18.23;;;11.87;;
4500;SDS011;2263;54.654;9.410;2022-11-27T15:42:22;18.83;;;12.33;;
4500;SDS011;2263;54.654;9.410;2022-11-27T15:44:54;17.30;;;11.63;;
4500;SDS011;2263;54.654;9.410;2022-11-27T15:47:25;21.50;;;12.47;;
4500;SDS011;2263;54.654;9.410;2022-11-27T15:49:53;19.43;;;11.47;;
4500;SDS011;2263;54.654;9.410;2022-11-27T15:52:21;19.07;;;11.53;;
4500;SDS011;2263;54.654;9.410;2022-11-27T15:54:49;19.77;;;10.30;;
4500;SDS011;2263;54.654;9.410;2022-11-27T15:57:16;21.30;;;12.07;;
4500;SDS011;2263;54.654;9.410;2022-11-27T15:59:43;24.40;;;13.37;;
4500;SDS011;2263;54.654;9.410;2022-11-27T16:02:11;22.43;;;12.00;;
4500;SDS011;2263;54.654;9.410;2022-11-27T16:04:43;13.53;;;10.00;;
4500;SDS011;2263;54.654;9.410;2022-11-27T16:07:10;14.53;;;9.87;;
4500;SDS011;2263;54.654;9.410;2022-11-27T16:09:38;15.73;;;10.10;;
4500;SDS011;2263;54.654;9.410;2022-11-27T16:12:05;14.67;;;9.80;;
4500;SDS011;2263;54.654;9.410;2022-11-27T16:14:32;21.77;;;10.53;;
4500;SDS011;2263;54.654;9.410;2022-11-27T16:17:00;13.50;;;9.93;;
4500;SDS011;2263;54.654;9.410;2022-11-27T16:19:27;21.90;;;9.77;;
4500;SDS011;2263;54.654;9.410;2022-11-27T16:21:55;16.30;;;9.83;;
4500;SDS011;2263;54.654;9.410;2022-11-27T16:24:22;15.83;;;10.37;;
4500;SDS011;2263;54.654;9.410;2022-11-27T16:26:49;21.87;;;10.07;;
4500;SDS011;2263;54.654;9.410;2022-11-27T16:29:17;14.93;;;9.70;;
4500;SDS011;2263;54.654;9.410;2022-11-27T16:31:44;15.10;;;11.03;;
4500;SDS011;2263;54.654;9.410;2022-11-27T16:34:13;21.87;;;11.77;;
4500;SDS011;2263;54.654;9.410;2022-11-27T16:36:41;22.53;;;12.17;;
4500;SDS011;2263;54.654;9.410;2022-11-27T16:39:09;12.43;;;9.50;;
4500;SDS011;2263;54.654;9.410;2022-11-27T16:41:37;13.80;;;9.90;;
4500;SDS011;2263;54.654;9.410;2022-11-27T16:44:09;18.30;;;10.57;;
4500;SDS011;2263;54.654;9.410;2022-11-27T16:46:38;16.03;;;10.03;;
4500;SDS011;2263;54.654;9.410;2022-11-27T16:49:06;14.13;;;10.10;;
4500;SDS011;2263;54.654;9.410;2022-11-27T16:51:35;17.23;;;10.43;;
4500;SDS011;2263;54.654;9.410;2022-11-27T16:54:05;15.10;;;11.60;;
4500;SDS011;2263;54.654;9.410;2022-11-27T16:56:36;15.33;;;10.10;;
4500;SDS011;2263;54.654;9.410;2022-11-27T16:59:11;13.17;;;10.37;;
4500;SDS011;2263;54.654;9.410;2022-11-27T17:01:40;16.33;;;11.20;;
4500;SDS011;2263;54.654;9.410;2022-11-27T17:04:10;17.37;;;11.40;;
4500;SDS011;2263;54.654;9.410;2022-11-27T17:06:41;14.33;;;9.60;;
4500;SDS011;2263;54.654;9.410;2022-11-27T17:09:09;15.40;;;10.73;;
4500;SDS011;2263;54.654;9.410;2022-11-27T17:11:37;14.27;;;10.57;;
4500;SDS011;2263;54.654;9.410;2022-11-27T17:14:08;14.77;;;9.57;;
4500;SDS011;2263;54.654;9.410;2022-11-27T17:16:36;15.83;;;9.60;;
4500;SDS011;2263;54.654;9.410;2022-11-27T17:19:08;12.07;;;9.37;;
4500;SDS011;2263;54.654;9.410;2022-11-27T17:21:39;16.80;;;9.93;;
4500;SDS011;2263;54.654;9.410;2022-11-27T17:24:08;15.67;;;9.27;;
4500;SDS011;2263;54.654;9.410;2022-11-27T17:26:41;15.40;;;10.30;;
4500;SDS011;2263;54.654;9.410;2022-11-27T17:29:09;23.80;;;10.50;;
4500;SDS011;2263;54.654;9.410;2022-11-27T17:31:38;19.77;;;9.77;;